Airfield :
LOGIN :

Register | Disclaimer

   EN    FR    IT 

 










Legend :    VFR   Marginal VFR   IFR   Intensive IFR   Very Intensive IFR
Visi :
Ceiling :
>= 8 km
>= 3000ft
5 to 8 km
1000 to 3000 ft
1500m to 5 km
500 to 1000 ft
800 to 1500m
200 to 500 ft
< 800m
< 200 ft
Symbols :   Thunderstorms  Fog  Heavy snow  Heavy precipitations  Wind > 20 kt
SIGMETs :     Misc.  Thunderstorms  Icing  Turbulence  Mountain Waves  Volcanic Ashes






- Airport Elevation : 13 ft
- IATA code : LYX


EGMD - Lydd

CURRENT METAR :
  • 221250Z 19007KT CAVOK 19/08 Q1014

EXPIRED METARs :
  • 221220Z 18007KT 150V220 9999 FEW035 18/07 Q1014
  • 221150Z 19007KT 160V220 9999 FEW035 18/09 Q1014
  • 221120Z 19008KT 150V220 9999 FEW015 18/09 Q1014
  • 221050Z 19008KT 160V220 9999 FEW015 17/09 Q1015
  • 221020Z 12007KT 9999 FEW014 18/11 Q1015
  • 220950Z VRB03KT 9999 VCFG FEW013 17/09 Q1015

TAF TAF EGMD
Valid from the 22 at 12:00 until the 22 at 21:00 UTC


221058Z 2212/2221 16008KT 9999 FEW020
PROB30
TEMPO 2218/2221 7000 RA
ATIS : +44 1797 322 422



MET'MAP, your aeronautical weather chart ! - Copyright ORBIFLY December 2007 - Disclaimer

ORBIFLY MET'MAP TEAM :

Programming & Development : Alexandra Zaïnal
Original concept : Baudouin d'Aumeries
Technical & hardware support : Manuel Goepfert
Assistance : Marc-Olivier Méhu

Contact : metmap@orbifly.com




SOURCES & CREDITS :

   NOAA